📊 Raw Sensor Data
Showing records 35001 to 35025 of 84,870 total
| ID | Distance (ft) | Battery V | Battery A | Int Temp (°F) | Int Humid (%) | Ext Temp (°F) | Solar V | RSSI | SNR | Time Stamp |
|---|---|---|---|---|---|---|---|---|---|---|
| 49882 | 15.1 | 3.64 | -5 | 60 | 45 | 64 | 0.10 | -71 | 8 | 08/22/2025 01:15 AM |
| 49881 | 15.1 | 3.63 | -5 | 60 | 46 | 62 | 0.00 | -71 | 8 | 08/22/2025 01:00 AM |
| 49880 | 15.1 | 3.63 | -5 | 60 | 46 | 62 | 0.10 | -72 | 8 | 08/22/2025 12:45 AM |
| 49879 | 15.1 | 3.63 | -5 | 61 | 46 | 63 | 0.00 | -70 | 8 | 08/22/2025 12:30 AM |
| 49878 | 15.2 | 3.63 | -5 | 61 | 47 | 62 | 0.00 | -71 | 8 | 08/22/2025 12:15 AM |
| 49877 | 15.2 | 3.79 | -5 | 62 | 47 | 63 | 0.00 | -70 | 9 | 08/22/2025 12:00 AM |
| 49876 | 15.2 | 3.64 | -5 | 64 | 47 | 64 | 0.00 | -70 | 8 | 08/21/2025 11:45 PM |
| 49875 | 15.2 | 3.65 | -5 | 65 | 46 | 66 | 0.10 | -69 | 9 | 08/21/2025 11:30 PM |
| 49874 | 15.2 | 3.65 | -5 | 66 | 46 | 68 | 0.00 | -70 | 8 | 08/21/2025 11:15 PM |
| 49873 | 15.2 | 3.65 | -5 | 66 | 47 | 68 | 0.10 | -70 | 9 | 08/21/2025 11:00 PM |
| 49872 | 15.2 | 3.64 | -5 | 67 | 47 | 69 | 0.00 | -71 | 8 | 08/21/2025 10:45 PM |
| 49871 | 15.1 | 3.65 | -5 | 68 | 47 | 68 | 0.00 | -70 | 8 | 08/21/2025 10:30 PM |
| 49870 | 15.1 | 3.65 | -5 | 69 | 48 | 69 | 0.00 | -70 | 8 | 08/21/2025 10:15 PM |
| 49869 | 15.2 | 3.80 | -5 | 70 | 49 | 70 | 0.00 | -70 | 9 | 08/21/2025 10:00 PM |
| 49868 | 15.1 | 3.63 | -5 | 71 | 49 | 72 | 0.00 | -70 | 9 | 08/21/2025 09:45 PM |
| 49867 | 15.1 | 3.62 | -5 | 73 | 49 | 73 | 0.00 | -70 | 8 | 08/21/2025 09:30 PM |
| 49866 | 15.1 | 3.80 | -5 | 74 | 50 | 75 | 0.00 | -70 | 8 | 08/21/2025 09:15 PM |
| 49865 | 15.1 | 3.64 | -5 | 75 | 51 | 75 | 0.10 | -71 | 8 | 08/21/2025 09:00 PM |
| 49864 | 15.2 | 3.80 | -5 | 76 | 53 | 76 | 0.00 | -70 | 8 | 08/21/2025 08:45 PM |
| 49863 | 15.2 | 3.61 | -5 | 79 | 54 | 78 | 0.00 | -70 | 8 | 08/21/2025 08:30 PM |
| 49862 | 15.1 | 3.66 | -5 | 81 | 56 | 80 | 0.20 | -70 | 8 | 08/21/2025 08:15 PM |
| 49861 | 15.2 | 3.80 | -5 | 83 | 58 | 81 | 1.20 | -70 | 8 | 08/21/2025 08:00 PM |
| 49860 | 15.2 | 3.77 | -9 | 89 | 58 | 83 | 4.20 | -70 | 8 | 08/21/2025 07:45 PM |
| 49859 | 15.3 | 3.83 | 0 | 95 | 56 | 88 | 4.60 | -70 | 8 | 08/21/2025 07:30 PM |
| 49858 | 15.3 | 3.88 | 8 | 99 | 56 | 92 | 4.60 | -71 | 7 | 08/21/2025 07:15 PM |